Time;durP1;ratioP1;P1;durP2;ratioP2;P2;SDS_P1;SDS_P2;PMS_P1;PMS_P2;Temp;Humidity;BMP_temperature;BMP_pressure;BME280_temperature;BME280_humidity;BME280_pressure;Samples;Min_cycle;Max_cycle;Signal;HPM_P1;HPM_P2
2022/11/07 00:02:20;;;;;;;53.50;24.40;;;;;;;;;;5016094;28;20045;-77
2022/11/07 00:05:06;;;;;;;45.30;23.52;;;;;;;;;;5015976;28;20050;-77
2022/11/07 00:07:50;;;;;;;45.78;26.30;;;;;;;;;;5015935;28;20053;-77
2022/11/07 00:10:35;;;;;;;55.97;30.15;;;;;;;;;;5016198;28;20388;-77
2022/11/07 00:13:21;;;;;;;140.25;90.97;;;;;;;;;;5017930;28;20046;-77
2022/11/07 00:16:08;;;;;;;80.15;43.95;;;;;;;;;;5015859;28;20038;-76
2022/11/07 00:18:54;;;;;;;58.50;31.15;;;;;;;;;;5015531;28;20050;-76
2022/11/07 00:21:40;;;;;;;39.17;23.08;;;;;;;;;;5015716;28;20045;-77
2022/11/07 00:24:25;;;;;;;50.10;28.17;;;;;;;;;;5015872;28;20042;-77
2022/11/07 00:27:11;;;;;;;36.25;20.73;;;;;;;;;;5015252;28;20050;-77
2022/11/07 00:29:56;;;;;;;41.20;23.73;;;;;;;;;;5015891;28;20379;-76
2022/11/07 00:32:41;;;;;;;38.88;22.23;;;;;;;;;;5021508;28;20037;-76
2022/11/07 00:35:26;;;;;;;40.88;22.13;;;;;;;;;;5022188;28;20041;-77
2022/11/07 00:38:11;;;;;;;;;;;;;;;;;;5015792;28;20046;-77
2022/11/07 00:40:58;;;;;;;40.30;23.60;;;;;;;;;;5015005;28;19917;-76
2022/11/07 00:43:43;;;;;;;39.55;21.33;;;;;;;;;;5015782;28;20046;-76
2022/11/07 00:46:29;;;;;;;42.53;21.70;;;;;;;;;;5014897;28;20034;-76
2022/11/07 00:49:14;;;;;;;39.88;19.58;;;;;;;;;;5020500;28;20050;-76
2022/11/07 00:52:00;;;;;;;34.33;20.33;;;;;;;;;;5014967;28;20046;-76
2022/11/07 00:54:46;;;;;;;36.88;19.45;;;;;;;;;;5015038;28;20046;-76
2022/11/07 00:57:31;;;;;;;37.22;20.30;;;;;;;;;;5021301;28;20422;-76
2022/11/07 01:00:17;;;;;;;40.72;20.13;;;;;;;;;;5021659;28;20049;-76
2022/11/07 01:06:07;;;;;;;40.78;20.75;;;;;;;;;;5014611;28;20034;-76
2022/11/07 01:08:53;;;;;;;36.55;20.67;;;;;;;;;;5014733;28;20440;-76
2022/11/07 01:11:40;;;;;;;35.63;20.83;;;;;;;;;;5014725;28;20054;-76
2022/11/07 01:14:26;;;;;;;41.00;22.20;;;;;;;;;;5021491;28;20387;-76
2022/11/07 01:17:12;;;;;;;38.33;22.90;;;;;;;;;;5020852;28;20464;-76
2022/11/07 01:19:58;;;;;;;47.25;22.88;;;;;;;;;;5021509;28;20046;-75
2022/11/07 01:22:43;;;;;;;41.40;22.52;;;;;;;;;;5014704;28;20484;-76
2022/11/07 01:25:29;;;;;;;45.55;24.65;;;;;;;;;;5021415;28;20046;-76
2022/11/07 01:28:14;;;;;;;47.95;25.55;;;;;;;;;;5021328;28;20058;-76
2022/11/07 01:31:05;;;;;;;53.63;28.90;;;;;;;;;;5014845;28;20042;-76
2022/11/07 01:33:51;;;;;;;46.47;25.38;;;;;;;;;;5014579;28;20045;-76
2022/11/07 01:36:36;;;;;;;47.10;24.15;;;;;;;;;;5013504;28;20475;-76
2022/11/07 01:39:22;;;;;;;51.80;25.58;;;;;;;;;;5013942;28;20049;-76
2022/11/07 01:42:11;;;;;;;50.47;25.08;;;;;;;;;;5014389;28;20050;-76
2022/11/07 01:44:58;;;;;;;64.47;26.13;;;;;;;;;;5014317;28;20050;-76
2022/11/07 01:47:43;;;;;;;55.03;26.77;;;;;;;;;;5013669;28;20049;-76
2022/11/07 01:50:29;;;;;;;61.50;25.42;;;;;;;;;;5020564;28;20491;-75
2022/11/07 01:53:14;;;;;;;50.00;25.17;;;;;;;;;;5014979;28;20038;-75
2022/11/07 01:56:00;;;;;;;54.38;25.75;;;;;;;;;;5020454;28;20038;-76
2022/11/07 01:58:45;;;;;;;58.58;25.10;;;;;;;;;;5014269;28;20479;-76
2022/11/07 02:01:30;;;;;;;61.20;25.90;;;;;;;;;;5014226;28;20049;-76
2022/11/07 02:04:20;;;;;;;49.13;25.60;;;;;;;;;;5014088;28;20392;-76
2022/11/07 02:07:14;;;;;;;60.47;26.45;;;;;;;;;;5013894;28;20043;-76
2022/11/07 02:10:02;;;;;;;65.00;26.45;;;;;;;;;;5013794;28;20488;-76
2022/11/07 02:12:47;;;;;;;60.35;27.38;;;;;;;;;;5020653;28;20042;-77
2022/11/07 02:15:33;;;;;;;67.10;28.25;;;;;;;;;;5013590;28;20067;-76
2022/11/07 02:18:21;;;;;;;71.10;28.17;;;;;;;;;;5020226;28;20407;-76
2022/11/07 02:21:16;;;;;;;67.13;28.10;;;;;;;;;;5014038;28;20042;-76
2022/11/07 02:24:07;;;;;;;66.13;28.20;;;;;;;;;;5014040;28;20049;-76
2022/11/07 02:26:55;;;;;;;64.20;28.95;;;;;;;;;;5013692;28;20058;-76
2022/11/07 02:29:46;;;;;;;56.33;27.02;;;;;;;;;;5013928;28;20045;-76
2022/11/07 02:32:31;;;;;;;67.68;29.02;;;;;;;;;;5013513;28;20042;-76
2022/11/07 02:35:39;;;;;;;68.20;28.35;;;;;;;;;;5013714;28;20108;-76
2022/11/07 02:38:32;;;;;;;63.60;26.98;;;;;;;;;;5013954;28;20045;-76
2022/11/07 02:41:21;;;;;;;62.85;28.05;;;;;;;;;;5014068;28;20034;-75
2022/11/07 02:44:10;;;;;;;68.95;29.25;;;;;;;;;;5020510;28;20045;-76
2022/11/07 02:46:55;;;;;;;59.30;27.90;;;;;;;;;;5013933;28;20050;-75
2022/11/07 02:49:40;;;;;;;67.00;28.58;;;;;;;;;;5024304;28;20046;-77
2022/11/07 02:52:26;;;;;;;70.25;28.17;;;;;;;;;;5017317;28;20483;-76
2022/11/07 02:55:12;;;;;;;71.80;29.05;;;;;;;;;;5017326;28;20046;-76
2022/11/07 02:57:57;;;;;;;56.55;27.90;;;;;;;;;;5017697;28;20042;-76
2022/11/07 03:00:42;;;;;;;70.50;29.27;;;;;;;;;;5017723;28;20487;-76
2022/11/07 03:03:29;;;;;;;58.80;28.45;;;;;;;;;;5017290;28;20475;-76
2022/11/07 03:06:18;;;;;;;60.67;27.05;;;;;;;;;;5016855;28;20041;-76
2022/11/07 03:09:02;;;;;;;62.60;27.20;;;;;;;;;;5016826;28;20427;-76
2022/11/07 03:11:48;;;;;;;56.88;25.17;;;;;;;;;;5016864;28;20041;-76
2022/11/07 03:14:33;;;;;;;61.65;25.45;;;;;;;;;;5023251;28;20049;-76
2022/11/07 03:17:18;;;;;;;45.03;23.98;;;;;;;;;;5016757;28;20472;-76
2022/11/07 03:20:05;;;;;;;47.20;24.10;;;;;;;;;;5016680;28;20045;-76
2022/11/07 03:22:50;;;;;;;50.10;26.48;;;;;;;;;;5023305;28;20042;-76
2022/11/07 03:25:36;;;;;;;74.10;35.22;;;;;;;;;;5016561;28;20046;-76
2022/11/07 03:28:22;;;;;;;49.67;24.20;;;;;;;;;;5017437;28;20046;-76
2022/11/07 03:31:07;;;;;;;46.20;24.45;;;;;;;;;;5023340;28;20042;-76
2022/11/07 03:33:53;;;;;;;57.03;24.08;;;;;;;;;;5023288;28;20042;-76
2022/11/07 03:36:38;;;;;;;46.80;24.30;;;;;;;;;;5016633;28;20038;-76
2022/11/07 03:39:24;;;;;;;51.45;23.08;;;;;;;;;;5022958;28;20045;-76
2022/11/07 03:42:09;;;;;;;51.63;24.30;;;;;;;;;;5016177;28;20042;-76
2022/11/07 03:44:55;;;;;;;43.67;22.13;;;;;;;;;;5016295;28;20054;-76
2022/11/07 03:47:41;;;;;;;50.42;22.45;;;;;;;;;;5015993;28;20053;-75
2022/11/07 03:50:27;;;;;;;47.00;23.60;;;;;;;;;;5015982;28;20049;-75
2022/11/07 03:53:12;;;;;;;42.50;23.33;;;;;;;;;;5022957;28;20403;-76
2022/11/07 03:55:57;;;;;;;39.75;21.52;;;;;;;;;;5015856;28;20068;-76
2022/11/07 03:58:43;;;;;;;47.88;23.17;;;;;;;;;;5021855;28;20050;-76
2022/11/07 04:01:28;;;;;;;43.33;21.60;;;;;;;;;;5015867;28;20050;-76
2022/11/07 04:04:14;;;;;;;42.85;22.90;;;;;;;;;;5022392;28;20054;-76
2022/11/07 04:07:00;;;;;;;40.50;22.58;;;;;;;;;;5015623;28;20045;-77
2022/11/07 04:09:45;;;;;;;47.88;23.13;;;;;;;;;;5022503;28;20045;-77
2022/11/07 04:18:41;;;;;;;45.10;22.95;;;;;;;;;;5022586;28;20045;-76
2022/11/07 04:21:26;;;;;;;47.78;22.92;;;;;;;;;;5015452;28;20050;-76
2022/11/07 04:24:12;;;;;;;45.75;22.83;;;;;;;;;;5015694;28;20042;-77
2022/11/07 04:30:34;;;;;;;44.65;22.75;;;;;;;;;;5015387;28;20046;-76
2022/11/07 04:33:13;;;;;;;50.13;24.45;;;;;;;;;;5021956;28;20049;-76
2022/11/07 04:35:58;;;;;;;51.28;25.08;;;;;;;;;;5021822;28;20490;-77
2022/11/07 04:38:44;;;;;;;46.22;24.20;;;;;;;;;;5021439;28;20041;-76
2022/11/07 04:41:29;;;;;;;50.80;25.73;;;;;;;;;;5020990;28;20042;-76
2022/11/07 04:44:14;;;;;;;52.33;24.85;;;;;;;;;;5015386;28;20046;-76
2022/11/07 04:47:00;;;;;;;54.25;24.70;;;;;;;;;;5017125;28;20042;-76
2022/11/07 04:49:45;;;;;;;49.30;24.17;;;;;;;;;;5015232;28;20054;-76
2022/11/07 04:52:30;;;;;;;52.55;25.98;;;;;;;;;;5021244;28;20038;-76
2022/11/07 04:55:22;;;;;;;50.13;26.10;;;;;;;;;;5021491;28;20042;-76
2022/11/07 04:58:07;;;;;;;45.97;24.13;;;;;;;;;;5014811;28;20054;-76
2022/11/07 05:00:52;;;;;;;48.10;24.08;;;;;;;;;;5019118;28;20041;-76
2022/11/07 05:03:38;;;;;;;43.58;22.38;;;;;;;;;;5021253;28;20053;-76
2022/11/07 05:06:24;;;;;;;46.17;23.55;;;;;;;;;;5021262;28;20050;-77
2022/11/07 05:09:15;;;;;;;50.72;23.75;;;;;;;;;;5021196;28;20427;-75
2022/11/07 05:12:01;;;;;;;56.78;24.08;;;;;;;;;;5021153;28;20057;-76
2022/11/07 05:14:46;;;;;;;57.20;24.85;;;;;;;;;;5021017;28;20399;-76
2022/11/07 05:17:32;;;;;;;52.28;24.30;;;;;;;;;;5014794;28;20384;-76
2022/11/07 05:20:30;;;;;;;49.67;25.23;;;;;;;;;;5014085;28;20041;-76
2022/11/07 05:23:16;;;;;;;49.83;24.70;;;;;;;;;;5014434;28;20483;-76
2022/11/07 05:26:02;;;;;;;54.38;23.83;;;;;;;;;;5019799;28;20042;-76
2022/11/07 05:28:47;;;;;;;63.33;25.48;;;;;;;;;;5014325;28;20037;-76
2022/11/07 05:31:33;;;;;;;54.85;26.00;;;;;;;;;;5014138;28;20042;-76
2022/11/07 05:34:19;;;;;;;57.13;28.00;;;;;;;;;;5014090;28;20045;-76
2022/11/07 05:37:09;;;;;;;59.05;26.63;;;;;;;;;;5013980;28;20204;-76
2022/11/07 05:39:54;;;;;;;53.95;26.48;;;;;;;;;;5013698;28;20050;-77
2022/11/07 05:42:39;;;;;;;51.22;24.15;;;;;;;;;;5014400;28;20468;-76
2022/11/07 05:45:26;;;;;;;55.97;25.77;;;;;;;;;;5017661;28;20046;-77
2022/11/07 05:48:12;;;;;;;52.70;26.13;;;;;;;;;;5023962;28;20057;-75
2022/11/07 05:51:03;;;;;;;61.30;28.98;;;;;;;;;;5013954;28;20077;-76
2022/11/07 05:53:48;;;;;;;60.25;29.10;;;;;;;;;;5013791;28;20042;-76
2022/11/07 05:56:36;;;;;;;56.72;28.27;;;;;;;;;;5020677;28;20050;-76
2022/11/07 05:59:21;;;;;;;66.75;31.63;;;;;;;;;;5020070;28;20042;-75
2022/11/07 06:02:06;;;;;;;61.70;30.45;;;;;;;;;;5019700;28;20041;-76
2022/11/07 06:04:51;;;;;;;67.47;34.17;;;;;;;;;;5020056;28;20046;-77
2022/11/07 06:07:38;;;;;;;64.88;30.40;;;;;;;;;;5013648;28;20041;-77
2022/11/07 06:10:23;;;;;;;74.55;30.90;;;;;;;;;;5013598;28;20050;-76
2022/11/07 06:13:12;;;;;;;67.10;30.13;;;;;;;;;;5012334;28;20496;-76
2022/11/07 06:15:57;;;;;;;70.75;29.52;;;;;;;;;;5012702;28;20499;-76
2022/11/07 06:18:42;;;;;;;67.30;29.60;;;;;;;;;;5020279;28;20038;-76
2022/11/07 06:21:28;;;;;;;71.97;29.85;;;;;;;;;;5019987;28;20050;-77
2022/11/07 06:24:14;;;;;;;70.43;29.55;;;;;;;;;;5017101;28;20042;-77
2022/11/07 06:26:59;;;;;;;62.80;25.77;;;;;;;;;;5023524;28;20049;-77
2022/11/07 06:29:44;;;;;;;52.17;24.08;;;;;;;;;;5016395;28;20491;-77
2022/11/07 06:32:30;;;;;;;52.15;23.63;;;;;;;;;;5017817;28;20098;-78
2022/11/07 06:35:17;;;;;;;67.25;26.15;;;;;;;;;;5016459;28;20042;-76
2022/11/07 06:38:09;;;;;;;63.10;24.90;;;;;;;;;;5022738;28;20046;-77
2022/11/07 06:40:53;;;;;;;61.00;25.70;;;;;;;;;;5017059;28;20046;-76
2022/11/07 06:43:40;;;;;;;62.60;26.45;;;;;;;;;;5023824;28;20042;-76
2022/11/07 06:46:24;;;;;;;55.83;25.90;;;;;;;;;;5016783;28;20042;-76
2022/11/07 06:49:10;;;;;;;55.33;25.75;;;;;;;;;;5023073;28;20049;-76
2022/11/07 06:51:54;;;;;;;47.67;24.88;;;;;;;;;;5022491;28;20046;-76
2022/11/07 06:54:39;;;;;;;52.40;24.00;;;;;;;;;;5023667;28;20046;-76
2022/11/07 06:57:25;;;;;;;56.90;25.52;;;;;;;;;;5023566;28;20584;-77
2022/11/07 07:00:11;;;;;;;56.63;25.83;;;;;;;;;;5016566;28;20037;-76
2022/11/07 07:02:56;;;;;;;58.03;26.08;;;;;;;;;;5023368;28;20049;-77
2022/11/07 07:05:42;;;;;;;54.22;26.30;;;;;;;;;;5023651;28;20045;-76
2022/11/07 07:08:28;;;;;;;58.85;27.20;;;;;;;;;;5015933;28;20046;-77
2022/11/07 07:11:15;;;;;;;61.28;27.92;;;;;;;;;;5023756;28;20042;-77
2022/11/07 07:14:01;;;;;;;45.53;24.15;;;;;;;;;;5023383;28;20464;-77
2022/11/07 07:16:46;;;;;;;46.70;23.10;;;;;;;;;;5016610;28;20058;-76
2022/11/07 07:19:31;;;;;;;55.97;24.33;;;;;;;;;;5029322;28;20025;-79
2022/11/07 07:22:16;;;;;;;48.72;23.23;;;;;;;;;;5016677;28;20483;-77
2022/11/07 07:25:02;;;;;;;36.50;19.58;;;;;;;;;;5016782;28;20049;-77
2022/11/07 07:27:47;;;;;;;27.17;15.35;;;;;;;;;;5023101;28;20041;-80
2022/11/07 07:30:32;;;;;;;36.25;17.95;;;;;;;;;;5015791;28;20045;-79
2022/11/07 07:33:19;;;;;;;36.47;18.73;;;;;;;;;;5014639;28;20046;-78
2022/11/07 07:36:05;;;;;;;37.78;18.83;;;;;;;;;;5016544;28;20042;-78
2022/11/07 07:38:50;;;;;;;43.40;23.42;;;;;;;;;;5016101;28;20403;-78
2022/11/07 07:41:36;;;;;;;29.90;15.70;;;;;;;;;;5023007;28;20076;-79
2022/11/07 07:44:21;;;;;;;26.63;15.75;;;;;;;;;;5016372;28;20046;-79
2022/11/07 07:47:06;;;;;;;22.33;12.25;;;;;;;;;;5016689;28;20508;-80
2022/11/07 07:49:52;;;;;;;24.15;13.23;;;;;;;;;;5016018;28;20415;-80
2022/11/07 07:52:38;;;;;;;25.15;13.70;;;;;;;;;;5016073;28;20046;-79
2022/11/07 07:55:24;;;;;;;23.92;11.95;;;;;;;;;;5022659;28;20042;-78
2022/11/07 07:58:10;;;;;;;24.55;14.45;;;;;;;;;;5023047;28;20038;-79
2022/11/07 08:00:58;;;;;;;29.15;15.88;;;;;;;;;;5016004;28;20049;-78
2022/11/07 08:03:44;;;;;;;28.25;12.98;;;;;;;;;;5015677;28;20050;-79
2022/11/07 08:06:31;;;;;;;22.13;12.05;;;;;;;;;;5024408;28;20065;-78
2022/11/07 08:09:16;;;;;;;22.95;12.40;;;;;;;;;;5015706;28;20494;-78
2022/11/07 08:12:04;;;;;;;20.58;12.43;;;;;;;;;;5015667;28;20395;-79
2022/11/07 08:14:48;;;;;;;28.65;14.55;;;;;;;;;;5017077;28;20045;-78
2022/11/07 08:17:33;;;;;;;25.63;14.60;;;;;;;;;;5015715;28;20483;-80
2022/11/07 08:20:19;;;;;;;28.30;15.13;;;;;;;;;;5015695;28;20395;-81
2022/11/07 08:23:07;;;;;;;25.23;14.35;;;;;;;;;;5015986;28;20471;-86
2022/11/07 08:25:54;;;;;;;28.00;14.15;;;;;;;;;;5016565;28;20046;-79
2022/11/07 08:28:39;;;;;;;26.33;13.30;;;;;;;;;;5015537;28;20049;-77
2022/11/07 08:31:25;;;;;;;23.60;14.60;;;;;;;;;;5022177;28;20038;-77
2022/11/07 08:34:10;;;;;;;29.67;14.38;;;;;;;;;;5015490;28;20042;-78
2022/11/07 08:36:55;;;;;;;26.45;15.50;;;;;;;;;;5015402;28;20054;-78
2022/11/07 08:39:41;;;;;;;51.15;28.05;;;;;;;;;;5014971;28;20046;-78
2022/11/07 08:42:26;;;;;;;49.90;29.45;;;;;;;;;;5015140;28;20042;-78
2022/11/07 08:45:12;;;;;;;37.75;23.17;;;;;;;;;;5015120;28;20053;-77
2022/11/07 08:47:58;;;;;;;34.30;15.95;;;;;;;;;;5020516;28;20395;-77
2022/11/07 08:50:44;;;;;;;27.05;14.70;;;;;;;;;;5014951;28;20045;-79
2022/11/07 08:53:29;;;;;;;26.38;15.77;;;;;;;;;;5025019;28;20050;-79
2022/11/07 08:56:15;;;;;;;49.92;22.70;;;;;;;;;;5015148;28;20575;-80
2022/11/07 08:59:01;;;;;;;22.80;13.73;;;;;;;;;;5014674;28;20038;-78
2022/11/07 09:01:46;;;;;;;26.88;14.32;;;;;;;;;;5014422;28;20042;-78
2022/11/07 09:04:31;;;;;;;23.58;13.43;;;;;;;;;;5014989;28;20491;-78
2022/11/07 09:07:17;;;;;;;22.30;14.02;;;;;;;;;;5014475;28;20046;-78
2022/11/07 09:10:03;;;;;;;27.48;14.98;;;;;;;;;;5020107;28;20049;-78
2022/11/07 09:12:49;;;;;;;27.92;15.90;;;;;;;;;;5021386;28;20045;-81
2022/11/07 09:15:35;;;;;;;23.08;12.77;;;;;;;;;;5014547;28;20037;-79
2022/11/07 09:18:20;;;;;;;25.67;13.48;;;;;;;;;;5015017;28;20046;-80
2022/11/07 09:21:06;;;;;;;28.05;14.85;;;;;;;;;;5016047;28;20041;-81
2022/11/07 09:23:51;;;;;;;30.60;15.60;;;;;;;;;;5016920;28;20400;-79
2022/11/07 09:26:37;;;;;;;25.65;12.70;;;;;;;;;;5015674;28;20049;-80
2022/11/07 09:29:22;;;;;;;28.02;14.38;;;;;;;;;;5018134;28;20050;-81
2022/11/07 09:32:08;;;;;;;26.27;13.52;;;;;;;;;;5020338;28;20046;-81
2022/11/07 09:34:54;;;;;;;25.40;12.93;;;;;;;;;;5022991;28;20045;-81
2022/11/07 09:37:40;;;;;;;23.48;12.80;;;;;;;;;;5019620;28;20053;-82
2022/11/07 09:40:47;;;;;;;22.45;13.75;;;;;;;;;;5026908;28;20050;-82
2022/11/07 09:43:58;;;;;;;25.27;13.98;;;;;;;;;;5016403;28;20045;-82
2022/11/07 09:46:58;;;;;;;23.27;13.68;;;;;;;;;;5016490;28;20384;-82
2022/11/07 09:49:47;;;;;;;23.95;14.18;;;;;;;;;;5018337;28;20050;-83
2022/11/07 09:52:56;;;;;;;22.38;13.90;;;;;;;;;;5022492;28;20042;-82
2022/11/07 09:55:50;;;;;;;25.60;14.35;;;;;;;;;;5015730;28;20046;-82
2022/11/07 09:58:41;;;;;;;23.75;13.77;;;;;;;;;;5020409;28;20033;-82
2022/11/07 10:01:30;;;;;;;23.08;13.57;;;;;;;;;;5019791;28;20441;-82
2022/11/07 10:04:18;;;;;;;24.45;15.98;;;;;;;;;;5013885;28;20038;-83
2022/11/07 10:07:35;;;;;;;26.05;15.88;;;;;;;;;;5019630;28;20045;-81
2022/11/07 10:10:49;;;;;;;22.92;14.20;;;;;;;;;;5018206;28;20046;-81
2022/11/07 10:13:50;;;;;;;21.15;13.20;;;;;;;;;;5014161;28;20488;-81
2022/11/07 10:16:55;;;;;;;21.13;12.93;;;;;;;;;;5013876;28;20045;-82
2022/11/07 10:19:40;;;;;;;;;;;;;;;;;;5014114;28;20491;-81
2022/11/07 10:22:59;;;;;;;21.17;13.88;;;;;;;;;;5013987;28;20264;-81
2022/11/07 10:26:09;;;;;;;24.73;15.00;;;;;;;;;;5017936;28;20054;-82
2022/11/07 10:29:00;;;;;;;24.85;16.10;;;;;;;;;;5005656;28;20487;-81
2022/11/07 10:32:11;;;;;;;31.83;17.70;;;;;;;;;;5013625;28;20050;-81
2022/11/07 10:35:23;;;;;;;28.85;17.20;;;;;;;;;;5013859;28;20495;-81
2022/11/07 10:38:29;;;;;;;23.42;15.38;;;;;;;;;;5013766;28;20053;-82
2022/11/07 10:41:23;;;;;;;26.35;16.25;;;;;;;;;;5013581;28;20045;-82
2022/11/07 10:44:22;;;;;;;21.75;14.50;;;;;;;;;;5013398;28;20049;-82
2022/11/07 10:47:22;;;;;;;27.45;15.15;;;;;;;;;;5012920;28;20495;-81
2022/11/07 10:50:20;;;;;;;25.02;16.42;;;;;;;;;;5013846;28;20050;-80
2022/11/07 10:53:08;;;;;;;34.28;16.95;;;;;;;;;;5013334;28;20395;-81
2022/11/07 10:55:54;;;;;;;24.10;14.70;;;;;;;;;;5013530;28;20042;-81
2022/11/07 10:58:43;;;;;;;30.00;16.52;;;;;;;;;;5019034;28;20041;-81
2022/11/07 11:01:28;;;;;;;23.40;14.57;;;;;;;;;;5012638;28;20042;-81
2022/11/07 11:04:20;;;;;;;25.70;15.43;;;;;;;;;;5013620;28;20042;-81
2022/11/07 11:07:11;;;;;;;30.48;16.98;;;;;;;;;;5013148;28;20046;-81
2022/11/07 11:09:57;;;;;;;29.35;16.58;;;;;;;;;;5016950;28;20046;-81
2022/11/07 11:12:47;;;;;;;27.13;16.13;;;;;;;;;;5025324;28;20046;-81
2022/11/07 11:15:42;;;;;;;25.77;14.57;;;;;;;;;;5017047;28;20054;-81
2022/11/07 11:18:28;;;;;;;26.20;15.13;;;;;;;;;;5016907;28;20046;-80
2022/11/07 11:21:13;;;;;;;27.58;14.73;;;;;;;;;;5016218;28;20045;-81
2022/11/07 11:23:59;;;;;;;20.77;11.73;;;;;;;;;;5016491;28;20053;-80
2022/11/07 11:26:49;;;;;;;25.02;15.65;;;;;;;;;;5016577;28;20046;-80
2022/11/07 11:29:40;;;;;;;28.08;14.35;;;;;;;;;;5022304;28;20488;-80
2022/11/07 11:32:38;;;;;;;28.65;16.58;;;;;;;;;;5016409;28;20058;-80
2022/11/07 11:35:32;;;;;;;25.13;16.95;;;;;;;;;;5016437;28;20054;-80
2022/11/07 11:38:32;;;;;;;36.60;19.95;;;;;;;;;;5016397;28;20050;-80
2022/11/07 11:41:33;;;;;;;25.33;15.00;;;;;;;;;;5015744;28;20058;-81
2022/11/07 11:44:30;;;;;;;32.17;19.25;;;;;;;;;;5017558;28;20472;-80
2022/11/07 11:47:24;;;;;;;33.97;19.80;;;;;;;;;;5015841;28;20050;-81
2022/11/07 11:50:19;;;;;;;38.60;19.83;;;;;;;;;;5015841;28;20049;-83
2022/11/07 11:53:10;;;;;;;29.77;17.88;;;;;;;;;;5016563;28;20038;-82
2022/11/07 11:56:10;;;;;;;33.45;18.45;;;;;;;;;;5017880;28;20038;-82
2022/11/07 11:59:17;;;;;;;49.47;24.13;;;;;;;;;;5017783;28;20042;-83
2022/11/07 12:02:26;;;;;;;37.17;20.80;;;;;;;;;;5020566;28;20046;-82
2022/11/07 12:05:12;;;;;;;36.08;20.58;;;;;;;;;;5016149;28;20396;-82
2022/11/07 12:08:07;;;;;;;36.50;20.92;;;;;;;;;;5016326;28;20046;-83
2022/11/07 12:10:59;;;;;;;;;;;;;;;;;;5022793;28;20042;-81
2022/11/07 12:14:03;;;;;;;33.88;19.45;;;;;;;;;;5021757;28;20256;-82
2022/11/07 12:17:12;;;;;;;37.47;20.80;;;;;;;;;;5014787;28;20487;-82
2022/11/07 12:20:31;;;;;;;31.02;17.45;;;;;;;;;;5014906;28;20042;-82
2022/11/07 12:23:24;;;;;;;30.40;17.17;;;;;;;;;;5015672;28;20046;-83
2022/11/07 12:26:22;;;;;;;31.70;17.20;;;;;;;;;;5015556;28;20483;-83
2022/11/07 12:29:32;;;;;;;24.17;14.30;;;;;;;;;;5015658;28;20050;-83
2022/11/07 12:32:54;;;;;;;30.10;16.58;;;;;;;;;;5020905;28;20045;-83
2022/11/07 12:35:45;;;;;;;25.20;16.48;;;;;;;;;;5015285;28;20050;-83
2022/11/07 12:39:08;;;;;;;25.58;14.02;;;;;;;;;;5014876;28;20404;-82
2022/11/07 12:42:04;;;;;;;26.33;16.13;;;;;;;;;;5014555;28;20046;-83
2022/11/07 12:45:19;;;;;;;21.92;11.05;;;;;;;;;;5015597;28;20050;-83
2022/11/07 12:48:30;;;;;;;38.08;15.23;;;;;;;;;;5023748;28;20050;-83
2022/11/07 12:51:24;;;;;;;27.63;14.02;;;;;;;;;;5015297;28;20042;-83
2022/11/07 12:54:36;;;;;;;41.60;22.88;;;;;;;;;;5015213;28;20471;-83
2022/11/07 12:57:25;;;;;;;40.10;21.38;;;;;;;;;;5015015;28;20042;-83
2022/11/07 13:00:19;;;;;;;31.10;19.65;;;;;;;;;;5006773;28;20046;-83
2022/11/07 13:03:41;;;;;;;34.72;16.35;;;;;;;;;;5015374;28;20053;-83
2022/11/07 13:06:46;;;;;;;26.45;17.23;;;;;;;;;;5013682;28;20054;-84
2022/11/07 13:09:31;;;;;;;30.83;20.20;;;;;;;;;;5014898;28;20395;-82
2022/11/07 13:12:54;;;;;;;28.67;14.95;;;;;;;;;;5014602;28;20061;-82
2022/11/07 13:15:40;;;;;;;39.00;22.13;;;;;;;;;;5021454;28;20037;-80
2022/11/07 13:18:26;;;;;;;30.25;17.17;;;;;;;;;;5021123;28;20038;-80
2022/11/07 13:21:12;;;;;;;46.42;24.92;;;;;;;;;;5020807;28;20495;-80
2022/11/07 13:24:04;;;;;;;36.92;16.92;;;;;;;;;;5021074;28;20050;-80
2022/11/07 13:26:50;;;;;;;24.15;14.00;;;;;;;;;;5020485;28;20037;-80
2022/11/07 13:29:39;;;;;;;40.28;19.27;;;;;;;;;;5014245;28;20053;-80
2022/11/07 13:32:23;;;;;;;25.27;13.13;;;;;;;;;;5013190;28;20042;-81
2022/11/07 13:35:22;;;;;;;32.10;19.60;;;;;;;;;;5019271;28;20046;-80
2022/11/07 13:38:22;;;;;;;30.42;16.77;;;;;;;;;;5014558;28;20046;-81
2022/11/07 13:41:07;;;;;;;37.30;17.60;;;;;;;;;;5013731;28;20041;-80
2022/11/07 13:43:57;;;;;;;25.55;12.68;;;;;;;;;;5014084;28;20046;-81
2022/11/07 13:46:46;;;;;;;34.97;16.65;;;;;;;;;;5013631;28;20054;-80
2022/11/07 13:49:37;;;;;;;44.20;22.88;;;;;;;;;;5013952;28;20042;-79
2022/11/07 13:52:33;;;;;;;36.75;18.98;;;;;;;;;;5014365;28;20042;-80
2022/11/07 13:55:23;;;;;;;213.48;135.25;;;;;;;;;;5013781;28;20038;-79
2022/11/07 13:58:13;;;;;;;110.95;56.28;;;;;;;;;;5020530;28;20045;-80
2022/11/07 14:01:09;;;;;;;127.13;71.22;;;;;;;;;;5019688;28;20038;-80
2022/11/07 14:03:54;;;;;;;84.75;47.45;;;;;;;;;;5014134;28;20061;-80
2022/11/07 14:06:40;;;;;;;32.90;15.95;;;;;;;;;;5013829;28;20038;-80
2022/11/07 14:09:29;;;;;;;26.13;15.57;;;;;;;;;;5020335;28;20045;-81
2022/11/07 14:12:18;;;;;;;40.33;21.17;;;;;;;;;;5013996;28;20045;-80
2022/11/07 14:15:04;;;;;;;30.27;15.73;;;;;;;;;;5013058;28;20050;-80
2022/11/07 14:17:50;;;;;;;39.70;22.73;;;;;;;;;;5013523;28;20049;-80
2022/11/07 14:20:35;;;;;;;33.03;20.95;;;;;;;;;;5013759;28;20054;-80
2022/11/07 14:23:24;;;;;;;33.90;18.35;;;;;;;;;;5013947;28;20049;-81
2022/11/07 14:26:22;;;;;;;41.67;20.38;;;;;;;;;;5013716;28;20042;-80
2022/11/07 14:29:07;;;;;;;33.10;19.80;;;;;;;;;;5013875;28;20054;-80
2022/11/07 14:31:57;;;;;;;41.75;21.90;;;;;;;;;;5013030;28;20050;-80
2022/11/07 14:34:44;;;;;;;35.20;20.02;;;;;;;;;;5013562;28;20049;-80
2022/11/07 14:37:33;;;;;;;32.95;17.52;;;;;;;;;;5013567;28;20041;-80
2022/11/07 14:40:19;;;;;;;42.15;22.77;;;;;;;;;;5012632;28;20058;-80
2022/11/07 14:43:04;;;;;;;54.78;29.52;;;;;;;;;;5014010;28;20049;-80
2022/11/07 14:45:57;;;;;;;56.50;29.02;;;;;;;;;;5016756;28;20046;-80
2022/11/07 14:48:43;;;;;;;44.47;26.15;;;;;;;;;;5024730;28;20050;-80
2022/11/07 14:51:30;;;;;;;43.08;21.55;;;;;;;;;;5022826;28;20042;-81
2022/11/07 14:54:18;;;;;;;90.72;40.97;;;;;;;;;;5023761;28;20049;-81
2022/11/07 14:57:04;;;;;;;50.05;25.65;;;;;;;;;;5024368;28;20413;-80
2022/11/07 14:59:50;;;;;;;45.30;23.13;;;;;;;;;;5025499;28;20049;-81
2022/11/07 15:02:36;;;;;;;134.68;64.88;;;;;;;;;;5032521;28;20046;-81
2022/11/07 15:05:34;;;;;;;161.43;91.05;;;;;;;;;;5027490;28;20041;-81
2022/11/07 15:08:37;;;;;;;90.03;47.15;;;;;;;;;;5026006;28;20055;-82
2022/11/07 15:11:30;;;;;;;73.75;37.13;;;;;;;;;;5022375;28;20045;-77
2022/11/07 15:14:33;;;;;;;99.15;54.33;;;;;;;;;;5023852;28;20042;-77
2022/11/07 15:17:25;;;;;;;115.72;56.75;;;;;;;;;;5016681;28;20046;-77
2022/11/07 15:20:36;;;;;;;89.60;49.22;;;;;;;;;;5016406;28;20038;-78
2022/11/07 15:23:21;;;;;;;65.15;37.80;;;;;;;;;;5022033;28;20050;-78
2022/11/07 15:26:07;;;;;;;47.28;26.15;;;;;;;;;;5016404;28;20054;-78
2022/11/07 15:28:53;;;;;;;45.60;28.10;;;;;;;;;;5016252;28;20050;-78
2022/11/07 15:31:47;;;;;;;56.88;29.80;;;;;;;;;;5016361;28;20041;-78
2022/11/07 15:34:32;;;;;;;63.45;36.05;;;;;;;;;;5015963;28;20053;-78
2022/11/07 15:37:20;;;;;;;60.10;31.92;;;;;;;;;;5016536;28;20398;-77
2022/11/07 15:40:17;;;;;;;77.45;42.95;;;;;;;;;;5016292;28;20042;-81
2022/11/07 15:43:02;;;;;;;59.53;35.35;;;;;;;;;;5016349;28;20042;-81
2022/11/07 15:45:51;;;;;;;61.78;35.75;;;;;;;;;;5015739;28;20471;-82
2022/11/07 15:48:36;;;;;;;69.53;39.00;;;;;;;;;;5015781;28;20042;-82
2022/11/07 15:51:22;;;;;;;88.07;43.92;;;;;;;;;;5016093;28;20045;-81
2022/11/07 15:54:11;;;;;;;89.65;47.25;;;;;;;;;;5025004;28;20041;-81
2022/11/07 15:57:03;;;;;;;91.63;48.65;;;;;;;;;;5020687;28;20050;-83
2022/11/07 15:59:49;;;;;;;104.30;49.78;;;;;;;;;;5017263;28;20049;-84
2022/11/07 16:02:34;;;;;;;106.85;55.20;;;;;;;;;;5023807;28;20038;-83
2022/11/07 16:05:20;;;;;;;105.55;54.92;;;;;;;;;;5024440;28;20042;-83
2022/11/07 16:08:07;;;;;;;116.72;60.13;;;;;;;;;;5016988;28;20042;-83
2022/11/07 16:10:55;;;;;;;112.10;59.25;;;;;;;;;;5017687;28;20050;-82
2022/11/07 16:13:41;;;;;;;125.43;62.20;;;;;;;;;;5015874;28;20041;-85
2022/11/07 16:16:31;;;;;;;139.38;62.83;;;;;;;;;;5016200;28;20059;-80
2022/11/07 16:19:19;;;;;;;127.13;60.38;;;;;;;;;;5014795;28;20399;-81
2022/11/07 16:22:04;;;;;;;162.13;77.05;;;;;;;;;;5016212;28;20050;-80
2022/11/07 16:24:50;;;;;;;172.50;75.25;;;;;;;;;;5015711;28;20399;-81
2022/11/07 16:27:35;;;;;;;182.40;87.55;;;;;;;;;;5021860;28;20045;-81
2022/11/07 16:30:21;;;;;;;180.60;83.97;;;;;;;;;;5015678;28;20047;-81
2022/11/07 16:33:09;;;;;;;129.73;61.85;;;;;;;;;;5019570;28;20050;-81
2022/11/07 16:35:58;;;;;;;111.68;55.30;;;;;;;;;;5015156;28;20042;-81
2022/11/07 16:38:44;;;;;;;120.57;57.35;;;;;;;;;;5015941;28;20042;-83